Time;durP1;ratioP1;P1;durP2;ratioP2;P2;SDS_P1;SDS_P2;PMS_P1;PMS_P2;Temp;Humidity;BMP_temperature;BMP_pressure;BME280_temperature;BME280_humidity;BME280_pressure;Samples;Min_cycle;Max_cycle;Signal;HPM_P1;HPM_P2
2023/12/12 00:01:53;;;;;;;7.47;2.40;;;11.90;99.90;;;;;;5039777;28;20207;-60
2023/12/12 00:04:19;;;;;;;7.23;2.57;;;11.90;99.90;;;;;;5042691;28;20583;-60
2023/12/12 00:06:46;;;;;;;9.83;3.30;;;11.90;99.90;;;;;;5043088;28;20780;-60
2023/12/12 00:09:13;;;;;;;11.10;4.07;;;11.80;99.90;;;;;;5040452;28;20210;-60
2023/12/12 00:11:39;;;;;;;10.43;4.70;;;11.80;99.90;;;;;;5039560;28;20205;-60
2023/12/12 00:14:06;;;;;;;11.07;6.73;;;11.70;99.90;;;;;;5041211;28;20207;-60
2023/12/12 00:16:34;;;;;;;13.80;5.37;;;11.60;99.90;;;;;;5042930;28;20202;-59
2023/12/12 00:19:02;;;;;;;11.23;5.53;;;11.60;99.90;;;;;;5041887;28;20671;-60
2023/12/12 00:21:28;;;;;;;18.10;9.27;;;11.50;99.90;;;;;;5039621;28;20213;-59
2023/12/12 00:23:55;;;;;;;17.90;9.47;;;11.50;99.90;;;;;;5039595;28;20211;-60
2023/12/12 00:26:22;;;;;;;13.40;7.40;;;11.50;99.90;;;;;;5039396;28;20285;-60
2023/12/12 00:28:49;;;;;;;7.17;3.03;;;11.50;99.90;;;;;;5039255;28;20268;-60
2023/12/12 00:31:15;;;;;;;10.87;3.70;;;11.60;99.90;;;;;;5042095;28;20589;-60
2023/12/12 00:33:43;;;;;;;10.47;2.50;;;11.70;99.90;;;;;;5042602;28;20225;-60
2023/12/12 00:36:10;;;;;;;9.17;2.40;;;11.70;99.90;;;;;;5041107;28;20202;-60
2023/12/12 00:38:37;;;;;;;6.10;1.90;;;11.60;99.90;;;;;;5039082;28;20280;-63
2023/12/12 00:41:04;;;;;;;7.77;2.20;;;11.70;99.90;;;;;;5040465;28;20207;-60
2023/12/12 00:43:32;;;;;;;5.57;2.13;;;11.80;99.90;;;;;;5042834;28;20193;-60
2023/12/12 00:45:59;;;;;;;7.17;2.20;;;11.90;99.90;;;;;;5042277;28;20287;-60
2023/12/12 00:48:25;;;;;;;6.70;2.30;;;11.90;99.90;;;;;;5039255;28;20226;-59
2023/12/12 00:50:53;;;;;;;7.17;2.00;;;12.00;99.90;;;;;;5039540;28;20578;-60
2023/12/12 00:53:20;;;;;;;7.23;2.60;;;12.00;99.90;;;;;;5047090;28;20700;-60
2023/12/12 00:55:46;;;;;;;7.10;2.53;;;11.90;99.90;;;;;;5039277;28;20210;-60
2023/12/12 00:58:13;;;;;;;8.60;2.80;;;11.90;99.90;;;;;;5041100;28;20230;-60
2023/12/12 01:00:40;;;;;;;10.43;2.23;;;11.90;99.90;;;;;;5042428;28;20231;-62
2023/12/12 01:03:06;;;;;;;5.33;2.20;;;11.90;99.90;;;;;;5040950;28;20255;-59
2023/12/12 01:05:33;;;;;;;6.73;2.57;;;11.90;99.90;;;;;;5039249;28;20202;-60
2023/12/12 01:08:01;;;;;;;4.80;2.03;;;11.90;99.90;;;;;;5039165;28;20272;-60
2023/12/12 01:10:28;;;;;;;5.97;1.77;;;11.90;99.90;;;;;;5042428;28;20202;-60
2023/12/12 01:12:55;;;;;;;4.73;1.83;;;11.90;99.90;;;;;;5042339;28;20217;-60
2023/12/12 01:15:21;;;;;;;5.23;1.70;;;11.90;99.90;;;;;;5043824;28;20648;-60
2023/12/12 01:17:48;;;;;;;6.03;2.13;;;11.90;99.90;;;;;;5046223;28;20229;-60
2023/12/12 01:20:15;;;;;;;5.10;1.57;;;11.80;99.90;;;;;;5043712;28;20205;-60
2023/12/12 01:22:41;;;;;;;5.07;1.90;;;11.80;99.90;;;;;;5042770;28;20203;-60
2023/12/12 01:25:09;;;;;;;6.17;2.07;;;11.70;99.90;;;;;;5044090;28;20209;-60
2023/12/12 01:27:36;;;;;;;3.80;1.50;;;11.60;99.90;;;;;;5046006;28;20234;-60
2023/12/12 01:30:03;;;;;;;8.57;1.90;;;11.50;99.90;;;;;;5045975;28;20260;-60
2023/12/12 01:32:30;;;;;;;5.17;1.83;;;11.50;99.90;;;;;;5046087;28;20217;-60
2023/12/12 01:34:57;;;;;;;5.23;2.00;;;11.50;99.90;;;;;;5046293;28;20205;-60
2023/12/12 01:37:23;;;;;;;6.40;2.00;;;11.60;99.90;;;;;;5042419;28;20703;-59
2023/12/12 01:39:50;;;;;;;7.10;3.00;;;11.60;99.90;;;;;;5042249;28;20206;-59
2023/12/12 01:42:18;;;;;;;21.47;11.53;;;11.70;99.90;;;;;;5044992;28;20690;-60
2023/12/12 01:44:45;;;;;;;18.63;9.57;;;11.70;99.90;;;;;;5045957;28;20608;-60
2023/12/12 01:47:12;;;;;;;12.30;5.40;;;11.80;99.90;;;;;;5043917;28;20229;-60
2023/12/12 01:49:39;;;;;;;7.17;3.47;;;11.80;99.90;;;;;;5042276;28;20202;-60
2023/12/12 01:52:07;;;;;;;5.27;2.07;;;11.80;99.90;;;;;;5043140;28;20214;-61
2023/12/12 01:54:38;;;;;;;5.73;2.10;;;11.90;99.90;;;;;;5045685;28;20209;-60
2023/12/12 01:57:05;;;;;;;4.80;2.03;;;12.00;99.90;;;;;;5044638;28;20233;-60
2023/12/12 01:59:35;;;;;;;7.43;2.27;;;12.10;99.90;;;;;;5042236;28;20206;-60
2023/12/12 02:02:02;;;;;;;5.93;1.93;;;12.10;99.90;;;;;;5042487;28;20214;-60
2023/12/12 02:04:28;;;;;;;6.60;1.93;;;12.10;99.90;;;;;;5045582;28;20236;-62
2023/12/12 02:06:57;;;;;;;3.57;1.33;;;12.10;99.90;;;;;;5045382;28;20232;-60
2023/12/12 02:09:25;;;;;;;4.70;2.03;;;12.20;99.90;;;;;;5042184;28;20293;-60
2023/12/12 02:11:51;;;;;;;4.40;1.80;;;12.20;99.90;;;;;;5041899;28;20554;-62
2023/12/12 02:14:18;;;;;;;6.30;1.73;;;12.20;99.90;;;;;;5044542;28;20606;-60
2023/12/12 02:16:46;;;;;;;6.53;1.83;;;12.20;99.90;;;;;;5045219;28;20225;-59
2023/12/12 02:19:13;;;;;;;3.63;1.70;;;12.20;99.90;;;;;;5043096;28;20209;-60
2023/12/12 02:21:41;;;;;;;5.33;1.47;;;12.30;99.90;;;;;;5041575;28;20617;-60
2023/12/12 02:24:07;;;;;;;5.73;1.60;;;12.30;99.90;;;;;;5042726;28;20256;-60
2023/12/12 02:26:34;;;;;;;3.97;2.20;;;12.30;99.90;;;;;;5045099;28;20197;-60
2023/12/12 02:29:01;;;;;;;4.57;1.67;;;12.30;99.90;;;;;;5044933;28;20214;-60
2023/12/12 02:31:28;;;;;;;6.50;1.60;;;12.30;99.90;;;;;;5041774;28;20249;-60
2023/12/12 02:33:55;;;;;;;7.87;1.77;;;12.30;99.90;;;;;;5041919;28;20221;-60
2023/12/12 02:36:21;;;;;;;5.40;1.67;;;12.40;99.90;;;;;;5044564;28;20202;-60
2023/12/12 02:38:49;;;;;;;3.93;1.43;;;12.40;99.90;;;;;;5045283;28;20625;-60
2023/12/12 02:41:16;;;;;;;5.77;1.80;;;12.40;99.90;;;;;;5042470;28;20217;-59
2023/12/12 02:43:43;;;;;;;5.40;1.50;;;12.30;99.90;;;;;;5041416;28;20803;-60
2023/12/12 02:46:09;;;;;;;4.93;1.47;;;12.30;99.90;;;;;;5042690;28;20292;-59
2023/12/12 02:48:36;;;;;;;4.57;1.40;;;12.20;99.90;;;;;;5044389;28;20225;-59
2023/12/12 02:51:03;;;;;;;3.57;1.80;;;12.20;99.90;;;;;;5044293;28;20272;-60
2023/12/12 02:53:30;;;;;;;4.43;1.60;;;12.20;99.90;;;;;;5040845;28;20225;-60
2023/12/12 02:55:58;;;;;;;5.77;1.57;;;12.10;99.90;;;;;;5041066;28;20218;-60
2023/12/12 02:58:25;;;;;;;4.43;1.80;;;12.00;99.90;;;;;;5044303;28;20224;-59
2023/12/12 03:00:51;;;;;;;7.13;2.10;;;11.70;99.90;;;;;;5044610;28;20213;-61
2023/12/12 03:03:18;;;;;;;4.40;1.80;;;11.30;99.90;;;;;;5041737;28;20205;-59
2023/12/12 03:05:45;;;;;;;5.80;1.93;;;11.10;99.90;;;;;;5040993;28;20256;-60
2023/12/12 03:08:11;;;;;;;5.77;2.00;;;11.10;99.90;;;;;;5042338;28;20233;-60
2023/12/12 03:10:38;;;;;;;7.23;2.03;;;11.10;99.90;;;;;;5044159;28;20667;-60
2023/12/12 03:13:06;;;;;;;5.17;1.77;;;11.00;99.90;;;;;;5043531;28;20222;-60
2023/12/12 03:15:33;;;;;;;5.23;2.03;;;10.90;99.90;;;;;;5040597;28;20202;-61
2023/12/12 03:17:59;;;;;;;6.00;1.90;;;10.70;99.90;;;;;;5040311;28;20222;-60
2023/12/12 03:20:26;;;;;;;5.37;1.80;;;10.60;99.90;;;;;;5040344;28;20202;-60
2023/12/12 03:22:53;;;;;;;3.73;1.77;;;10.60;99.90;;;;;;5040655;28;20252;-60
2023/12/12 03:25:19;;;;;;;4.97;1.97;;;10.60;99.90;;;;;;5043033;28;20207;-60
2023/12/12 03:27:46;;;;;;;4.73;2.00;;;10.60;99.90;;;;;;5043811;28;20228;-60
2023/12/12 03:30:14;;;;;;;4.27;2.23;;;10.50;99.90;;;;;;5042101;28;20290;-60
2023/12/12 03:32:41;;;;;;;4.73;2.20;;;10.50;99.90;;;;;;5040098;28;20627;-61
2023/12/12 03:35:08;;;;;;;7.50;2.20;;;10.50;99.90;;;;;;5041363;28;20240;-60
2023/12/12 03:37:35;;;;;;;6.27;2.20;;;10.50;99.90;;;;;;5043125;28;20240;-60
2023/12/12 03:40:01;;;;;;;5.27;1.90;;;10.40;99.90;;;;;;5043413;28;20214;-60
2023/12/12 03:42:28;;;;;;;8.13;2.10;;;10.40;99.90;;;;;;5040086;28;20207;-60
2023/12/12 03:44:55;;;;;;;4.73;1.63;;;10.30;99.90;;;;;;5040265;28;20214;-60
2023/12/12 03:47:23;;;;;;;4.57;1.67;;;10.30;99.90;;;;;;5042492;28;20230;-60
2023/12/12 03:49:49;;;;;;;4.93;2.40;;;10.20;99.90;;;;;;5043213;28;20213;-60
2023/12/12 03:52:16;;;;;;;3.83;1.80;;;10.10;99.90;;;;;;5041332;28;20263;-60
2023/12/12 03:54:43;;;;;;;4.33;1.70;;;10.10;99.90;;;;;;5039949;28;20230;-60
2023/12/12 03:57:09;;;;;;;4.13;2.20;;;10.10;99.90;;;;;;5040795;28;20230;-60
2023/12/12 03:59:36;;;;;;;5.37;1.90;;;10.10;99.90;;;;;;5043061;28;20204;-60
2023/12/12 04:02:02;;;;;;;3.50;1.60;;;10.00;99.90;;;;;;5042959;28;20209;-60
2023/12/12 04:04:30;;;;;;;4.10;1.87;;;10.00;99.90;;;;;;5039907;28;20198;-60
2023/12/12 04:06:57;;;;;;;3.63;1.50;;;10.10;99.90;;;;;;5039834;28;20280;-60
2023/12/12 04:09:24;;;;;;;5.23;1.73;;;10.20;99.90;;;;;;5042408;28;20206;-60
2023/12/12 04:11:50;;;;;;;5.27;2.03;;;10.20;99.90;;;;;;5043032;28;20259;-62
2023/12/12 04:14:17;;;;;;;9.93;6.80;;;10.30;99.90;;;;;;5040878;28;20266;-60
2023/12/12 04:16:44;;;;;;;3.63;1.60;;;10.40;99.90;;;;;;5039935;28;20230;-60
2023/12/12 04:19:10;;;;;;;3.00;1.50;;;10.40;99.90;;;;;;5040644;28;20206;-60
2023/12/12 04:21:40;;;;;;;4.53;1.80;;;10.30;99.90;;;;;;5042968;28;20213;-60
2023/12/12 04:24:08;;;;;;;3.63;1.67;;;10.30;99.90;;;;;;5042679;28;20632;-62
2023/12/12 04:26:34;;;;;;;6.93;1.73;;;10.30;99.90;;;;;;5039231;28;20580;-60
2023/12/12 04:29:03;;;;;;;6.63;1.67;;;10.30;99.90;;;;;;5039470;28;20227;-59
2023/12/12 04:31:30;;;;;;;4.63;1.73;;;10.20;99.90;;;;;;5039542;28;20206;-59
2023/12/12 04:33:57;;;;;;;7.80;4.50;;;10.20;99.90;;;;;;5039469;28;20229;-59
2023/12/12 04:36:23;;;;;;;31.97;21.00;;;10.20;99.90;;;;;;5041983;28;20249;-59
2023/12/12 04:38:51;;;;;;;14.60;9.03;;;10.20;99.90;;;;;;5042540;28;20263;-59
2023/12/12 04:41:18;;;;;;;8.53;4.77;;;10.30;99.90;;;;;;5040496;28;20741;-59
2023/12/12 04:43:45;;;;;;;7.20;2.90;;;10.30;99.90;;;;;;5039612;28;20214;-59
2023/12/12 04:46:19;;;;;;;9.47;3.70;;;10.30;99.90;;;;;;5040729;28;20237;-59
2023/12/12 04:48:45;;;;;;;9.23;3.80;;;10.40;99.90;;;;;;5042723;28;20388;-59
2023/12/12 04:51:12;;;;;;;4.90;2.37;;;10.40;99.90;;;;;;5044411;28;20267;-59
2023/12/12 04:53:38;;;;;;;5.30;2.63;;;10.30;99.90;;;;;;5043758;28;20218;-59
2023/12/12 04:56:07;;;;;;;5.93;2.03;;;10.20;99.90;;;;;;5043320;28;20625;-59
2023/12/12 04:58:34;;;;;;;4.07;1.93;;;10.20;99.90;;;;;;5046395;28;20232;-59
2023/12/12 05:01:01;;;;;;;2.70;1.57;;;10.20;99.90;;;;;;5046776;28;20263;-59
2023/12/12 05:03:27;;;;;;;2.67;1.60;;;10.10;99.90;;;;;;5046488;28;20212;-59
2023/12/12 05:05:54;;;;;;;3.97;1.60;;;10.10;99.90;;;;;;5046676;28;20217;-59
2023/12/12 05:08:21;;;;;;;3.73;1.50;;;10.00;99.90;;;;;;5043920;28;20226;-59
2023/12/12 05:10:47;;;;;;;3.00;1.50;;;10.00;99.90;;;;;;5043092;28;20205;-59
2023/12/12 05:13:15;;;;;;;5.27;1.70;;;9.90;99.90;;;;;;5044031;28;20624;-59
2023/12/12 05:15:42;;;;;;;3.50;1.80;;;9.80;99.90;;;;;;5046431;28;20566;-59
2023/12/12 05:18:09;;;;;;;4.50;2.10;;;9.70;99.90;;;;;;5045170;28;20715;-60
2023/12/12 05:20:35;;;;;;;5.83;2.43;;;9.60;99.90;;;;;;5042925;28;20206;-59
2023/12/12 05:23:02;;;;;;;5.83;1.97;;;9.50;99.90;;;;;;5042734;28;20210;-59
2023/12/12 05:25:29;;;;;;;4.70;1.80;;;9.50;99.90;;;;;;5051054;28;20199;-59
2023/12/12 05:27:56;;;;;;;5.47;1.87;;;9.40;99.90;;;;;;5042670;28;20647;-59
2023/12/12 05:30:24;;;;;;;7.17;1.73;;;9.30;99.90;;;;;;5044808;28;20210;-59
2023/12/12 05:32:51;;;;;;;3.67;1.67;;;9.30;99.90;;;;;;5046055;28;20638;-59
2023/12/12 05:35:17;;;;;;;4.40;2.27;;;9.20;99.90;;;;;;5044096;28;20710;-59
2023/12/12 05:37:44;;;;;;;5.20;2.30;;;9.20;99.90;;;;;;5042419;28;20257;-60
2023/12/12 05:40:14;;;;;;;5.63;1.80;;;9.20;99.90;;;;;;5043085;28;20229;-59
2023/12/12 05:42:41;;;;;;;5.57;2.40;;;9.10;99.90;;;;;;5045763;28;20198;-59
2023/12/12 05:45:08;;;;;;;3.53;1.73;;;9.10;99.90;;;;;;5045350;28;20205;-59
2023/12/12 05:47:36;;;;;;;5.53;2.93;;;9.10;99.90;;;;;;5041977;28;20608;-59
2023/12/12 05:50:04;;;;;;;7.03;2.90;;;9.20;99.90;;;;;;5041986;28;20213;-59
2023/12/12 05:52:30;;;;;;;6.97;2.70;;;9.20;99.90;;;;;;5045684;28;20197;-59
2023/12/12 05:54:57;;;;;;;9.37;2.60;;;9.20;99.90;;;;;;5045781;28;20229;-60
2023/12/12 05:57:24;;;;;;;4.40;2.00;;;9.20;99.90;;;;;;5042928;28;20835;-59
2023/12/12 05:59:50;;;;;;;3.57;1.73;;;9.00;99.90;;;;;;5042017;28;20206;-61
2023/12/12 06:02:17;;;;;;;5.63;2.00;;;8.90;99.90;;;;;;5043337;28;20203;-61
2023/12/12 06:04:48;;;;;;;3.47;1.80;;;8.80;99.90;;;;;;5045213;28;20714;-61
2023/12/12 06:07:15;;;;;;;3.83;2.00;;;8.70;99.90;;;;;;5044330;28;20226;-60
2023/12/12 06:09:42;;;;;;;6.50;2.33;;;8.60;99.90;;;;;;5042311;28;20202;-60
2023/12/12 06:12:09;;;;;;;5.83;2.03;;;8.60;99.90;;;;;;5042365;28;20289;-59
2023/12/12 06:14:36;;;;;;;3.57;2.00;;;8.60;99.90;;;;;;5045111;28;20645;-60
2023/12/12 06:17:03;;;;;;;6.60;2.03;;;8.60;99.90;;;;;;5045035;28;20312;-59
2023/12/12 06:19:30;;;;;;;4.67;2.27;;;8.60;99.90;;;;;;5044704;28;20553;-61
2023/12/12 06:21:58;;;;;;;5.73;1.67;;;8.70;99.90;;;;;;5044984;28;20209;-59
2023/12/12 06:24:25;;;;;;;5.37;1.87;;;8.80;99.90;;;;;;5042371;28;20210;-61
2023/12/12 06:26:51;;;;;;;7.80;2.20;;;8.70;99.90;;;;;;5041515;28;20268;-61
2023/12/12 06:29:18;;;;;;;5.23;2.20;;;8.70;99.90;;;;;;5049794;28;20216;-60
2023/12/12 06:31:44;;;;;;;8.90;5.87;;;8.80;99.90;;;;;;5041473;28;20214;-61
2023/12/12 06:34:11;;;;;;;8.30;2.90;;;8.80;99.90;;;;;;5042358;28;20248;-61
2023/12/12 06:36:38;;;;;;;6.90;2.70;;;8.90;99.90;;;;;;5044886;28;20225;-61
2023/12/12 06:39:09;;;;;;;6.50;2.73;;;8.90;99.90;;;;;;5044869;28;20202;-61
2023/12/12 06:41:36;;;;;;;5.57;2.10;;;8.90;99.90;;;;;;5044770;28;20224;-61
2023/12/12 06:44:03;;;;;;;6.50;2.37;;;8.90;99.90;;;;;;5044880;28;20198;-61
2023/12/12 06:46:30;;;;;;;4.20;2.10;;;9.00;99.90;;;;;;5044402;28;20560;-61
2023/12/12 06:48:57;;;;;;;8.27;2.20;;;8.90;99.90;;;;;;5044698;28;20404;-61
2023/12/12 06:51:24;;;;;;;3.77;2.03;;;9.00;99.90;;;;;;5042375;28;20205;-61
2023/12/12 06:53:52;;;;;;;6.90;2.30;;;9.10;99.90;;;;;;5041158;28;20280;-61
2023/12/12 06:56:20;;;;;;;4.73;2.10;;;9.10;99.90;;;;;;5042672;28;20588;-61
2023/12/12 06:58:47;;;;;;;6.77;2.40;;;9.10;99.90;;;;;;5044358;28;20202;-61
2023/12/12 07:01:14;;;;;;;6.80;2.10;;;9.10;99.90;;;;;;5043217;28;20312;-61
2023/12/12 07:03:41;;;;;;;7.30;2.40;;;9.10;99.90;;;;;;5041096;28;20198;-60
2023/12/12 07:06:08;;;;;;;7.17;2.60;;;9.00;99.90;;;;;;5041041;28;20317;-60
2023/12/12 07:08:36;;;;;;;4.40;2.10;;;9.00;99.90;;;;;;5040687;28;20248;-60
2023/12/12 07:11:03;;;;;;;9.73;1.90;;;9.00;99.90;;;;;;5040856;28;20202;-60
2023/12/12 07:13:32;;;;;;;6.60;2.07;;;8.90;99.90;;;;;;5047757;28;20207;-60
2023/12/12 07:15:59;;;;;;;5.13;2.17;;;8.90;99.90;;;;;;5040715;28;20276;-61
2023/12/12 07:18:25;;;;;;;7.97;2.03;;;9.00;99.90;;;;;;5042590;28;20226;-60
2023/12/12 07:20:53;;;;;;;5.67;2.60;;;9.10;99.90;;;;;;5044175;28;20205;-60
2023/12/12 07:23:19;;;;;;;5.83;2.23;;;9.20;99.90;;;;;;5042149;28;20210;-61
2023/12/12 07:25:47;;;;;;;6.60;2.20;;;9.30;99.90;;;;;;5040489;28;20221;-61
2023/12/12 07:28:13;;;;;;;7.07;1.90;;;9.40;99.90;;;;;;5040574;28;20313;-60
2023/12/12 07:30:42;;;;;;;3.67;1.90;;;9.40;99.90;;;;;;5043595;28;20663;-61
2023/12/12 07:33:09;;;;;;;6.30;2.23;;;9.50;99.90;;;;;;5043867;28;20209;-61
2023/12/12 07:35:36;;;;;;;6.13;1.80;;;9.50;99.90;;;;;;5040360;28;20225;-60
2023/12/12 07:38:03;;;;;;;5.93;2.00;;;9.50;99.90;;;;;;5040270;28;20276;-60
2023/12/12 07:40:30;;;;;;;4.87;1.93;;;9.60;99.90;;;;;;5042969;28;20202;-61
2023/12/12 07:42:57;;;;;;;7.63;2.33;;;9.70;99.90;;;;;;5043407;28;20233;-60
2023/12/12 07:45:24;;;;;;;3.47;1.83;;;9.80;99.90;;;;;;5041286;28;20209;-60
2023/12/12 07:47:52;;;;;;;4.73;1.70;;;9.70;99.90;;;;;;5040081;28;20226;-61
2023/12/12 07:50:19;;;;;;;5.50;1.87;;;9.70;99.90;;;;;;5041289;28;20229;-60
2023/12/12 07:52:47;;;;;;;3.87;2.00;;;9.60;99.90;;;;;;5043744;28;20206;-61
2023/12/12 07:55:14;;;;;;;7.07;2.13;;;9.40;99.90;;;;;;5042442;28;20232;-61
2023/12/12 07:57:41;;;;;;;5.57;1.87;;;9.30;99.90;;;;;;5039644;28;20232;-60
2023/12/12 08:00:10;;;;;;;5.13;1.93;;;9.30;99.90;;;;;;5039840;28;20217;-61
2023/12/12 08:02:36;;;;;;;6.83;2.53;;;9.30;99.90;;;;;;5039726;28;20228;-60
2023/12/12 08:05:06;;;;;;;10.50;2.00;;;9.40;99.90;;;;;;5039807;28;20206;-61
2023/12/12 08:07:32;;;;;;;5.00;2.70;;;9.60;99.90;;;;;;5042663;28;20707;-61
2023/12/12 08:09:59;;;;;;;6.33;1.90;;;9.80;99.90;;;;;;5043097;28;20213;-61
2023/12/12 08:12:26;;;;;;;6.83;2.00;;;10.10;99.90;;;;;;5040572;28;20272;-61
2023/12/12 08:14:53;;;;;;;3.27;1.77;;;10.30;99.90;;;;;;5039752;28;20230;-61
2023/12/12 08:17:20;;;;;;;5.83;2.40;;;10.50;99.90;;;;;;5040906;28;20795;-60
2023/12/12 08:19:47;;;;;;;5.53;2.00;;;10.70;99.90;;;;;;5042895;28;20205;-60
2023/12/12 08:22:15;;;;;;;9.00;2.47;;;10.80;99.90;;;;;;5042280;28;20370;-60
2023/12/12 08:24:43;;;;;;;5.67;2.20;;;10.90;99.90;;;;;;5039230;28;20257;-61
2023/12/12 08:27:10;;;;;;;4.77;2.00;;;11.00;99.90;;;;;;5039325;28;20490;-61
2023/12/12 08:29:37;;;;;;;4.77;2.30;;;10.90;99.90;;;;;;5051200;28;20288;-66
2023/12/12 08:32:04;;;;;;;5.10;2.20;;;10.80;99.90;;;;;;5042894;28;20209;-61
2023/12/12 08:34:33;;;;;;;4.90;2.10;;;10.70;99.90;;;;;;5039772;28;20230;-61
2023/12/12 08:37:00;;;;;;;3.90;1.97;;;10.70;99.90;;;;;;5039210;28;20312;-61
2023/12/12 08:39:29;;;;;;;4.93;2.07;;;10.60;99.90;;;;;;5041157;28;20571;-61
2023/12/12 08:41:57;;;;;;;4.30;2.00;;;10.40;99.90;;;;;;5036725;28;20214;-61
2023/12/12 08:44:23;;;;;;;3.63;1.90;;;10.30;99.90;;;;;;5041042;28;20218;-60
2023/12/12 08:46:50;;;;;;;5.57;2.00;;;10.20;99.90;;;;;;5042629;28;20230;-61
2023/12/12 08:49:18;;;;;;;3.57;2.00;;;10.30;99.90;;;;;;5041437;28;20590;-61
2023/12/12 08:51:45;;;;;;;2.90;1.70;;;10.50;99.90;;;;;;5038994;28;20683;-61
2023/12/12 08:54:12;;;;;;;3.97;1.80;;;10.70;99.90;;;;;;5039407;28;20206;-61
2023/12/12 08:56:41;;;;;;;6.00;1.83;;;10.90;99.90;;;;;;5042628;28;20225;-61
2023/12/12 08:59:08;;;;;;;2.80;1.80;;;10.90;99.90;;;;;;5042506;28;20213;-61
2023/12/12 09:01:34;;;;;;;6.27;1.90;;;11.00;99.90;;;;;;5042339;28;20715;-61
2023/12/12 09:04:02;;;;;;;3.67;2.03;;;11.20;99.90;;;;;;5042493;28;20212;-61
2023/12/12 09:06:29;;;;;;;4.00;1.87;;;11.20;99.90;;;;;;5039882;28;20667;-61
2023/12/12 09:08:55;;;;;;;3.20;1.90;;;11.30;99.90;;;;;;5039065;28;20345;-61
2023/12/12 09:11:22;;;;;;;3.67;1.67;;;11.30;99.90;;;;;;5040208;28;20548;-61
2023/12/12 09:13:50;;;;;;;3.97;1.70;;;11.50;99.90;;;;;;5042557;28;20212;-61
2023/12/12 09:16:17;;;;;;;3.63;1.50;;;11.60;99.90;;;;;;5041435;28;20275;-61
2023/12/12 09:18:44;;;;;;;4.10;2.03;;;11.40;99.90;;;;;;5038433;28;20304;-61
2023/12/12 09:21:11;;;;;;;6.27;2.00;;;11.30;99.90;;;;;;5039050;28;20206;-59
2023/12/12 09:23:40;;;;;;;4.57;1.83;;;11.40;99.90;;;;;;5038883;28;20252;-60
2023/12/12 09:26:12;;;;;;;3.60;1.60;;;11.40;99.90;;;;;;5038751;28;20206;-60
2023/12/12 09:28:40;;;;;;;3.50;1.60;;;11.50;99.90;;;;;;5038762;28;20284;-60
2023/12/12 09:31:10;;;;;;;4.30;1.57;;;11.60;99.90;;;;;;5038827;28;20206;-60
2023/12/12 09:33:37;;;;;;;4.67;2.13;;;11.60;99.90;;;;;;5046672;28;20210;-60
2023/12/12 09:36:04;;;;;;;2.90;1.33;;;11.50;99.90;;;;;;5039768;28;20237;-60
2023/12/12 09:38:31;;;;;;;4.07;2.00;;;11.40;99.90;;;;;;5044916;28;20268;-60
2023/12/12 09:40:58;;;;;;;2.13;1.33;;;11.30;99.90;;;;;;5045797;28;20201;-61
2023/12/12 09:43:26;;;;;;;2.70;1.47;;;11.10;99.90;;;;;;5043884;28;20202;-60
2023/12/12 09:45:58;;;;;;;3.03;1.50;;;11.10;99.90;;;;;;5042390;28;20226;-60
2023/12/12 09:48:26;;;;;;;3.53;1.50;;;11.10;99.90;;;;;;5052190;28;20240;-60
2023/12/12 09:50:55;;;;;;;2.13;1.60;;;11.10;99.90;;;;;;5046027;28;20232;-60
2023/12/12 09:53:22;;;;;;;4.53;2.33;;;11.10;99.90;;;;;;5044689;28;20301;-61
2023/12/12 09:55:49;;;;;;;3.00;1.73;;;11.20;99.90;;;;;;5042068;28;20218;-60
2023/12/12 09:58:16;;;;;;;4.23;1.53;;;11.30;99.90;;;;;;5042432;28;20874;-60
2023/12/12 10:00:42;;;;;;;2.07;1.30;;;11.40;99.90;;;;;;5045533;28;20592;-60
2023/12/12 10:03:09;;;;;;;5.17;1.40;;;11.60;99.90;;;;;;5045528;28;20217;-60
2023/12/12 10:05:38;;;;;;;4.17;1.30;;;11.70;99.90;;;;;;5045220;28;20202;-60
2023/12/12 10:08:06;;;;;;;2.33;1.37;;;11.90;99.90;;;;;;5044975;28;20699;-60
2023/12/12 10:10:32;;;;;;;1.50;1.20;;;11.90;99.90;;;;;;5042666;28;20216;-60
2023/12/12 10:12:59;;;;;;;2.93;1.43;;;11.90;99.90;;;;;;5042004;28;20214;-60
2023/12/12 10:15:27;;;;;;;1.77;1.17;;;12.00;99.90;;;;;;5043350;28;20229;-60
2023/12/12 10:18:00;;;;;;;2.60;1.27;;;12.00;99.90;;;;;;5045139;28;20221;-60
2023/12/12 10:20:29;;;;;;;3.77;1.47;;;11.90;99.90;;;;;;5043114;28;20214;-60
2023/12/12 10:23:00;;;;;;;3.90;2.30;;;11.90;99.90;;;;;;5041546;28;20506;-60
2023/12/12 10:25:29;;;;;;;2.93;1.67;;;11.90;99.90;;;;;;5049909;28;20267;-60
2023/12/12 10:27:56;;;;;;;2.67;1.33;;;11.90;99.90;;;;;;5086156;22;20633;-55
2023/12/12 10:30:23;;;;;;;1.80;1.40;;;11.90;99.90;;;;;;5083526;28;20742;-55
2023/12/12 10:32:51;;;;;;;4.33;1.50;;;12.00;99.90;;;;;;5081790;28;20591;-54
2023/12/12 10:35:18;;;;;;;2.80;1.20;;;12.10;99.90;;;;;;5081908;28;20316;-54
2023/12/12 10:37:45;;;;;;;2.20;1.40;;;12.10;99.90;;;;;;5084624;28;20648;-55
2023/12/12 10:40:15;;;;;;;2.10;1.23;;;12.20;99.90;;;;;;5084748;28;20228;-54
2023/12/12 10:42:42;;;;;;;3.23;1.60;;;12.30;99.90;;;;;;5084618;28;20644;-54
2023/12/12 10:45:12;;;;;;;3.53;1.73;;;12.20;99.90;;;;;;5084884;28;20661;-56
2023/12/12 10:47:41;;;;;;;3.37;1.80;;;12.20;99.90;;;;;;5072997;28;20311;-54
2023/12/12 10:50:13;;;;;;;4.10;2.03;;;12.30;99.90;;;;;;5080955;28;20208;-53
2023/12/12 10:52:40;;;;;;;2.80;1.63;;;12.40;99.90;;;;;;5073242;28;20213;-54
2023/12/12 10:55:08;;;;;;;1.83;1.10;;;12.40;99.90;;;;;;5080775;28;20572;-53
2023/12/12 10:57:38;;;;;;;2.30;1.20;;;12.60;99.90;;;;;;5084204;28;20228;-55
2023/12/12 11:00:11;;;;;;;3.43;1.50;;;12.70;99.90;;;;;;5084356;28;20712;-54
2023/12/12 11:02:39;;;;;;;2.17;1.07;;;12.90;99.90;;;;;;5080928;28;20209;-55
2023/12/12 11:05:08;;;;;;;2.10;0.90;;;13.00;99.90;;;;;;5081092;28;20212;-55
2023/12/12 11:07:36;;;;;;;1.40;0.80;;;13.10;99.90;;;;;;5083401;28;20228;-55
2023/12/12 11:10:06;;;;;;;1.20;0.87;;;13.20;99.90;;;;;;5084276;28;20253;-55
2023/12/12 11:12:37;;;;;;;1.77;0.93;;;13.30;99.90;;;;;;5081415;28;20457;-55
2023/12/12 11:15:05;;;;;;;1.33;0.90;;;13.40;99.90;;;;;;5080408;28;20215;-56
2023/12/12 11:17:34;;;;;;;1.00;0.60;;;13.50;99.90;;;;;;5083261;28;20651;-54
2023/12/12 11:20:12;;;;;;;1.57;1.33;;;13.50;99.90;;;;;;5084468;28;20655;-55
2023/12/12 11:22:39;;;;;;;1.97;0.80;;;13.70;99.90;;;;;;5080699;28;20683;-54
2023/12/12 11:25:08;;;;;;;1.57;0.60;;;13.70;99.90;;;;;;5080547;28;20208;-55
2023/12/12 11:27:39;;;;;;;0.70;0.60;;;13.70;99.90;;;;;;5082977;28;20229;-56
2023/12/12 11:30:07;;;;;;;0.80;0.70;;;13.80;99.90;;;;;;5083579;28;20291;-55
2023/12/12 11:32:35;;;;;;;1.50;1.17;;;13.90;99.90;;;;;;5081229;28;20204;-54
2023/12/12 11:35:06;;;;;;;1.07;0.77;;;13.90;99.90;;;;;;5080045;28;20232;-54
2023/12/12 11:37:41;;;;;;;2.00;1.13;;;14.00;99.90;;;;;;5082537;28;20231;-54
2023/12/12 11:40:09;;;;;;;1.67;1.07;;;14.00;99.90;;;;;;5083554;28;20200;-54
2023/12/12 11:42:38;;;;;;;1.67;0.80;;;14.00;99.90;;;;;;5078531;28;20526;-56
2023/12/12 11:45:06;;;;;;;2.07;1.20;;;13.90;99.90;;;;;;5079968;28;20213;-57
2023/12/12 11:47:32;;;;;;;2.10;0.90;;;13.90;99.90;;;;;;5082206;28;20613;-57
2023/12/12 11:50:30;;;;;;;1.77;1.07;;;13.90;99.90;;;;;;5083369;28;20230;-56
2023/12/12 11:52:57;;;;;;;1.30;0.83;;;13.90;99.90;;;;;;5073575;28;20560;-59
2023/12/12 11:55:29;;;;;;;1.97;1.10;;;13.90;99.90;;;;;;5080541;28;20251;-59
2023/12/12 11:58:00;;;;;;;2.80;1.43;;;14.10;99.90;;;;;;5082930;28;20232;-58
2023/12/12 12:00:31;;;;;;;1.30;1.20;;;14.10;99.90;;;;;;5081005;28;20242;-58
2023/12/12 12:02:58;;;;;;;2.43;1.30;;;14.20;99.90;;;;;;5079521;28;20250;-58
2023/12/12 12:05:25;;;;;;;2.00;1.20;;;14.20;99.90;;;;;;5080447;28;20266;-58
2023/12/12 12:07:52;;;;;;;1.63;0.90;;;14.10;99.90;;;;;;5082780;28;20721;-58
2023/12/12 12:10:18;;;;;;;1.63;1.10;;;14.00;99.90;;;;;;5082681;28;20208;-58
2023/12/12 12:12:53;;;;;;;2.20;1.40;;;13.90;99.90;;;;;;5079845;28;20209;-59
2023/12/12 12:15:21;;;;;;;4.73;1.60;;;13.80;99.90;;;;;;5079978;28;20213;-58
2023/12/12 12:17:48;;;;;;;2.00;1.00;;;13.80;99.90;;;;;;5082570;28;20582;-58
2023/12/12 12:20:15;;;;;;;3.27;2.07;;;13.70;99.90;;;;;;5082930;28;20204;-60
2023/12/12 12:22:42;;;;;;;1.70;1.47;;;13.70;99.90;;;;;;5079039;28;20288;-59
2023/12/12 12:25:09;;;;;;;2.07;1.20;;;13.70;99.90;;;;;;5079497;28;20300;-58
2023/12/12 12:27:48;;;;;;;1.97;1.20;;;13.70;99.90;;;;;;5081583;28;20221;-59
2023/12/12 12:30:14;;;;;;;2.00;1.33;;;13.70;99.90;;;;;;5082713;28;20204;-58
2023/12/12 12:32:57;;;;;;;1.90;1.30;;;13.80;99.90;;;;;;5079531;28;20254;-58
2023/12/12 12:35:24;;;;;;;1.73;1.17;;;13.90;99.90;;;;;;5080244;28;20205;-57
2023/12/12 12:37:52;;;;;;;2.50;1.30;;;14.00;99.90;;;;;;5082677;28;20315;-58
2023/12/12 12:40:33;;;;;;;4.17;2.40;;;14.10;99.90;;;;;;5082876;28;20684;-58
2023/12/12 12:43:00;;;;;;;1.10;0.93;;;14.10;99.90;;;;;;5079425;28;20212;-59
2023/12/12 12:45:27;;;;;;;2.23;1.10;;;14.10;99.90;;;;;;5080728;28;20271;-59
2023/12/12 12:47:55;;;;;;;2.90;1.40;;;14.10;99.90;;;;;;5082471;28;20249;-55
2023/12/12 12:50:22;;;;;;;2.10;1.27;;;14.20;99.90;;;;;;5082149;28;20206;-53